Time;durP1;ratioP1;P1;durP2;ratioP2;P2;SDS_P1;SDS_P2;PMS_P1;PMS_P2;Temp;Humidity;BMP_temperature;BMP_pressure;BME280_temperature;BME280_humidity;BME280_pressure;Samples;Min_cycle;Max_cycle;Signal;HPM_P1;HPM_P2
2022/01/09 00:00:29;;;;;;;8.85;7.95;;;4.40;99.90;;;;;;5006026;28;20456;-73
2022/01/09 00:02:55;;;;;;;9.43;8.40;;;4.40;99.90;;;;;;5006145;28;20029;-72
2022/01/09 00:05:21;;;;;;;9.27;8.38;;;4.40;99.90;;;;;;5006998;28;20547;-73
2022/01/09 00:07:48;;;;;;;9.18;8.27;;;4.40;99.90;;;;;;5005834;28;20045;-73
2022/01/09 00:10:14;;;;;;;9.13;8.23;;;4.40;99.90;;;;;;5008800;28;20061;-73
2022/01/09 00:12:40;;;;;;;8.73;7.93;;;4.40;99.90;;;;;;4999495;28;20390;-73
2022/01/09 00:15:06;;;;;;;9.35;8.45;;;4.50;99.90;;;;;;5004286;28;20100;-73
2022/01/09 00:17:32;;;;;;;8.63;7.82;;;4.40;99.90;;;;;;5005640;28;20045;-73
2022/01/09 00:19:57;;;;;;;8.75;7.93;;;4.50;99.90;;;;;;5008120;28;20460;-73
2022/01/09 00:22:39;;;;;;;9.02;8.07;;;4.40;99.90;;;;;;5006317;28;20082;-73
2022/01/09 00:25:05;;;;;;;9.13;7.78;;;4.50;99.90;;;;;;5003077;28;20042;-73
2022/01/09 00:27:31;;;;;;;9.15;8.25;;;4.40;99.90;;;;;;5006233;28;20489;-73
2022/01/09 00:29:56;;;;;;;8.88;7.97;;;4.50;99.90;;;;;;5005677;28;20061;-73
2022/01/09 00:32:22;;;;;;;8.88;8.07;;;4.50;99.90;;;;;;5007401;28;20045;-74
2022/01/09 00:34:48;;;;;;;8.57;7.60;;;4.50;99.90;;;;;;4996823;28;20042;-73
2022/01/09 00:37:14;;;;;;;8.05;7.30;;;4.50;99.90;;;;;;5005850;28;20034;-73
2022/01/09 00:39:39;;;;;;;8.95;8.15;;;4.50;99.90;;;;;;5008751;28;20128;-73
2022/01/09 00:42:05;;;;;;;8.52;7.72;;;4.50;99.90;;;;;;5005472;28;20057;-73
2022/01/09 00:44:31;;;;;;;8.40;7.60;;;4.50;99.90;;;;;;5007069;28;20041;-73
2022/01/09 00:47:00;;;;;;;7.88;7.18;;;4.40;99.90;;;;;;5008132;28;20046;-73
2022/01/09 00:49:26;;;;;;;8.73;7.93;;;4.50;99.90;;;;;;5006648;28;20488;-73
2022/01/09 00:51:52;;;;;;;9.07;8.18;;;4.50;99.90;;;;;;5006921;28;20048;-73
2022/01/09 00:54:18;;;;;;;9.55;8.55;;;4.50;99.90;;;;;;5004795;28;20053;-73
2022/01/09 00:56:43;;;;;;;9.35;8.45;;;4.50;99.90;;;;;;5005679;28;20497;-73
2022/01/09 00:59:09;;;;;;;8.98;8.13;;;4.50;99.90;;;;;;5006644;28;20120;-73
2022/01/09 01:01:34;;;;;;;9.57;8.68;;;4.50;99.90;;;;;;5004656;28;20045;-73
2022/01/09 01:04:00;;;;;;;9.07;8.18;;;4.40;99.90;;;;;;5005028;28;20037;-73
2022/01/09 01:06:25;;;;;;;9.05;8.15;;;4.50;99.90;;;;;;5005906;28;20046;-73
2022/01/09 01:08:51;;;;;;;8.85;7.95;;;4.50;99.90;;;;;;4990490;28;20485;-74
2022/01/09 01:11:17;;;;;;;9.25;8.35;;;4.40;99.90;;;;;;5005525;28;20042;-73
2022/01/09 01:13:42;;;;;;;9.30;8.40;;;4.50;99.90;;;;;;5004622;28;20111;-73
2022/01/09 01:16:08;;;;;;;9.68;8.77;;;4.40;99.90;;;;;;5005819;28;20042;-73
2022/01/09 01:18:34;;;;;;;8.98;8.18;;;4.40;99.90;;;;;;5007351;28;20119;-73
2022/01/09 01:21:00;;;;;;;9.68;8.77;;;4.50;99.90;;;;;;5021937;28;20053;-73
2022/01/09 01:23:26;;;;;;;8.67;7.87;;;4.50;99.90;;;;;;5008290;28;20065;-73
2022/01/09 01:25:52;;;;;;;9.23;8.32;;;4.50;99.90;;;;;;5003739;28;20683;-73
2022/01/09 01:28:19;;;;;;;9.70;8.80;;;4.40;99.90;;;;;;5002525;28;20049;-73
2022/01/09 01:30:45;;;;;;;9.70;8.77;;;4.50;99.90;;;;;;5006144;28;20481;-73
2022/01/09 01:33:10;;;;;;;9.48;8.57;;;4.50;99.90;;;;;;5013142;28;20038;-73
2022/01/09 01:35:36;;;;;;;9.77;8.88;;;4.50;99.90;;;;;;5006742;28;20492;-73
2022/01/09 01:38:02;;;;;;;8.90;8.05;;;4.50;99.90;;;;;;5002377;28;20177;-73
2022/01/09 01:40:28;;;;;;;10.27;9.27;;;4.50;99.90;;;;;;5008283;28;20101;-73
2022/01/09 01:42:53;;;;;;;10.43;9.43;;;4.50;99.90;;;;;;5004864;28;20046;-73
2022/01/09 01:45:19;;;;;;;10.52;9.55;;;4.50;99.90;;;;;;5006156;28;20567;-73
2022/01/09 01:47:45;;;;;;;10.32;9.32;;;4.50;99.90;;;;;;5003466;28;20044;-73
2022/01/09 01:50:13;;;;;;;11.68;10.57;;;4.50;99.90;;;;;;5005729;28;20588;-73
2022/01/09 01:52:43;;;;;;;;;;;4.50;99.90;;;;;;5004546;28;20493;-73
2022/01/09 01:55:11;;;;;;;11.90;10.80;;;4.50;99.90;;;;;;4998630;28;19960;-73
2022/01/09 01:57:42;;;;;;;11.50;10.50;;;4.50;99.90;;;;;;5006069;28;20512;-73
2022/01/09 02:00:12;;;;;;;11.98;10.88;;;4.50;99.90;;;;;;5005918;28;20046;-73
2022/01/09 02:02:38;;;;;;;11.93;10.80;;;4.60;99.90;;;;;;5005287;28;20050;-72
2022/01/09 02:05:04;;;;;;;12.50;11.40;;;4.60;99.90;;;;;;5007159;28;20378;-73
2022/01/09 02:07:30;;;;;;;13.20;12.00;;;4.60;99.90;;;;;;5004207;28;20049;-73
2022/01/09 02:09:56;;;;;;;12.27;11.07;;;4.60;99.90;;;;;;5004911;28;20045;-74
2022/01/09 02:12:22;;;;;;;13.40;12.10;;;4.60;99.90;;;;;;5006105;28;20045;-73
2022/01/09 02:14:48;;;;;;;14.13;12.80;;;4.50;99.90;;;;;;5005637;28;20389;-73
2022/01/09 02:17:21;;;;;;;12.95;11.75;;;4.60;99.90;;;;;;5005160;28;20058;-73
2022/01/09 02:19:55;;;;;;;14.35;12.95;;;4.60;99.90;;;;;;5005306;28;20042;-74
2022/01/09 02:22:22;;;;;;;14.52;13.13;;;4.60;99.90;;;;;;5004045;28;20057;-73
2022/01/09 02:24:49;;;;;;;15.80;14.20;;;4.60;99.90;;;;;;5003670;28;20213;-73
2022/01/09 02:27:15;;;;;;;15.40;13.87;;;4.60;99.90;;;;;;5009234;28;20041;-73
2022/01/09 02:29:41;;;;;;;18.17;16.38;;;4.60;99.90;;;;;;5009756;28;20049;-73
2022/01/09 02:32:07;;;;;;;17.58;15.98;;;4.60;99.90;;;;;;5009349;28;20072;-73
2022/01/09 02:34:33;;;;;;;18.98;17.17;;;4.60;99.90;;;;;;5009591;28;20057;-73
2022/01/09 02:36:59;;;;;;;20.90;18.77;;;4.70;99.90;;;;;;5009076;28;20050;-73
2022/01/09 02:39:24;;;;;;;19.67;17.92;;;4.60;99.90;;;;;;5006663;28;20104;-73
2022/01/09 02:41:50;;;;;;;21.10;19.10;;;4.60;99.90;;;;;;5006232;28;20037;-73
2022/01/09 02:44:16;;;;;;;21.17;19.27;;;4.60;99.90;;;;;;5009263;28;20125;-73
2022/01/09 02:49:08;;;;;;;24.95;22.58;;;4.70;99.90;;;;;;5007534;28;20367;-73
2022/01/09 02:51:39;;;;;;;22.80;20.70;;;4.70;99.90;;;;;;5009632;28;20084;-74
2022/01/09 02:55:05;;;;;;;24.52;22.33;;;4.70;99.90;;;;;;5007700;28;20048;-73
2022/01/09 02:56:53;;;;;;;26.48;24.02;;;4.70;99.90;;;;;;5012219;28;20136;-73
2022/01/09 02:59:19;;;;;;;27.70;25.00;;;4.70;99.90;;;;;;5007778;28;20477;-73
2022/01/09 03:01:44;;;;;;;27.83;25.23;;;4.70;99.90;;;;;;5007511;28;20116;-73
2022/01/09 03:04:10;;;;;;;28.00;25.35;;;4.70;99.90;;;;;;5008034;28;20046;-73
2022/01/09 03:06:35;;;;;;;28.73;26.13;;;4.70;99.90;;;;;;5008194;28;20041;-74
2022/01/09 03:09:04;;;;;;;31.50;28.50;;;4.70;99.90;;;;;;5008172;28;20042;-73
2022/01/09 03:11:31;;;;;;;30.15;27.25;;;4.70;99.90;;;;;;5006757;28;20050;-73
2022/01/09 03:13:56;;;;;;;32.07;28.93;;;4.70;99.90;;;;;;5005633;28;20076;-73
2022/01/09 03:16:22;;;;;;;32.88;29.67;;;4.70;99.90;;;;;;5006515;28;20038;-73
2022/01/09 03:18:48;;;;;;;33.72;30.27;;;4.70;99.90;;;;;;4999901;28;20050;-73
2022/01/09 03:21:14;;;;;;;33.42;30.20;;;4.70;99.90;;;;;;5010306;28;20137;-73
2022/01/09 03:23:40;;;;;;;32.55;29.38;;;4.70;99.90;;;;;;5010214;28;20109;-73
2022/01/09 03:26:08;;;;;;;32.88;29.50;;;4.70;99.90;;;;;;5007898;28;20460;-73
2022/01/09 03:28:35;;;;;;;30.95;27.85;;;4.70;99.90;;;;;;5005204;28;20052;-73
2022/01/09 03:31:00;;;;;;;30.70;27.70;;;4.80;99.90;;;;;;5006669;28;20033;-73
2022/01/09 03:33:26;;;;;;;29.77;26.67;;;4.70;99.90;;;;;;5005938;28;20061;-74
2022/01/09 03:35:52;;;;;;;29.10;26.15;;;4.80;99.90;;;;;;5008868;28;20030;-73
2022/01/09 03:38:17;;;;;;;24.92;22.27;;;4.80;99.90;;;;;;5001810;28;20622;-73
2022/01/09 03:40:43;;;;;;;25.33;22.45;;;4.80;99.90;;;;;;5003562;28;20129;-73
2022/01/09 03:43:08;;;;;;;23.38;19.65;;;4.80;99.90;;;;;;5003271;28;20061;-72
2022/01/09 03:45:34;;;;;;;19.50;15.90;;;4.80;99.90;;;;;;5007512;28;20050;-73
2022/01/09 03:47:59;;;;;;;21.42;15.93;;;4.80;99.90;;;;;;5007073;28;20045;-73
2022/01/09 03:50:26;;;;;;;18.98;15.00;;;4.90;99.90;;;;;;5004192;28;20049;-74
2022/01/09 03:52:52;;;;;;;19.35;16.23;;;4.90;99.90;;;;;;5002860;28;20042;-73
2022/01/09 03:55:20;;;;;;;22.13;17.20;;;5.00;99.90;;;;;;5009060;28;20046;-73
2022/01/09 03:57:47;;;;;;;20.95;17.20;;;5.00;99.90;;;;;;5005535;28;20053;-73
2022/01/09 04:00:16;;;;;;;23.20;18.08;;;5.00;99.90;;;;;;5006693;28;20042;-73
2022/01/09 04:02:42;;;;;;;24.42;18.08;;;5.00;99.90;;;;;;5008399;28;20517;-73
2022/01/09 04:05:08;;;;;;;24.55;18.08;;;5.10;99.90;;;;;;5007169;28;20052;-73
2022/01/09 04:07:35;;;;;;;24.57;17.33;;;5.10;99.90;;;;;;4998398;28;20056;-73
2022/01/09 04:10:01;;;;;;;23.83;17.05;;;5.10;99.90;;;;;;5009765;28;20478;-73
2022/01/09 04:12:47;;;;;;;24.70;16.95;;;5.10;99.90;;;;;;5004349;28;20092;-73
2022/01/09 04:15:13;;;;;;;27.20;13.65;;;5.10;99.90;;;;;;5005478;28;20070;-73
2022/01/09 04:20:07;;;;;;;29.83;13.85;;;5.20;99.90;;;;;;5003794;28;20053;-73
2022/01/09 04:22:32;;;;;;;34.15;13.82;;;5.20;99.90;;;;;;5005617;28;20485;-73
2022/01/09 04:24:58;;;;;;;37.97;15.10;;;5.30;99.90;;;;;;5009222;28;20211;-74
2022/01/09 04:27:24;;;;;;;35.38;15.13;;;5.30;99.90;;;;;;5005180;28;20485;-73
2022/01/09 04:29:49;;;;;;;30.67;12.90;;;5.30;99.90;;;;;;5005901;28;20474;-73
2022/01/09 04:32:15;;;;;;;29.45;11.23;;;5.30;99.90;;;;;;5007425;28;20046;-73
2022/01/09 04:34:41;;;;;;;37.08;12.25;;;5.40;99.90;;;;;;5004175;28;20069;-73
2022/01/09 04:37:06;;;;;;;38.03;11.55;;;5.40;99.90;;;;;;5021290;28;20037;-72
2022/01/09 04:39:32;;;;;;;39.42;8.52;;;5.40;99.90;;;;;;5006641;28;20050;-72
2022/01/09 04:41:58;;;;;;;42.30;8.35;;;5.50;99.90;;;;;;5004109;28;20374;-72
2022/01/09 04:44:24;;;;;;;52.47;8.27;;;5.50;99.90;;;;;;5007274;28;20121;-73
2022/01/09 04:46:58;;;;;;;58.15;8.93;;;5.60;99.90;;;;;;5005970;28;20073;-73
2022/01/09 04:49:27;;;;;;;49.58;8.00;;;5.60;99.90;;;;;;5021556;28;20053;-73
2022/01/09 04:51:54;;;;;;;50.83;8.18;;;5.70;99.90;;;;;;5001880;28;20119;-73
2022/01/09 04:54:19;;;;;;;55.28;7.75;;;5.80;99.90;;;;;;5006789;28;20057;-73
2022/01/09 04:56:45;;;;;;;58.90;8.35;;;5.80;99.90;;;;;;5004064;28;20053;-73
2022/01/09 04:59:10;;;;;;;51.53;8.68;;;5.90;99.90;;;;;;5006485;28;20064;-73
2022/01/09 05:01:36;;;;;;;43.25;7.18;;;5.90;99.90;;;;;;5005068;28;20136;-73
2022/01/09 05:04:02;;;;;;;59.50;8.32;;;5.90;99.90;;;;;;5005933;28;20483;-72
2022/01/09 05:06:27;;;;;;;54.78;7.32;;;6.00;99.90;;;;;;5005569;28;20042;-74
2022/01/09 05:08:53;;;;;;;45.03;7.03;;;6.00;99.90;;;;;;5005189;28;20050;-73
2022/01/09 05:11:19;;;;;;;50.92;7.55;;;6.00;99.90;;;;;;5012629;28;20049;-73
2022/01/09 05:13:44;;;;;;;40.20;7.55;;;6.00;99.90;;;;;;5007110;28;20079;-73
2022/01/09 05:16:10;;;;;;;40.25;6.40;;;6.00;99.90;;;;;;5005498;28;20058;-73
2022/01/09 05:18:50;;;;;;;44.33;7.35;;;6.00;99.90;;;;;;5006480;28;20065;-72
2022/01/09 05:21:15;;;;;;;40.08;6.13;;;6.00;99.90;;;;;;5003772;28;20053;-73
2022/01/09 05:23:41;;;;;;;39.83;6.00;;;6.00;99.90;;;;;;5004881;28;20046;-73
2022/01/09 05:26:07;;;;;;;36.58;6.35;;;6.00;99.90;;;;;;5005233;28;20042;-74
2022/01/09 05:28:32;;;;;;;40.58;6.78;;;6.00;99.90;;;;;;5006174;28;20072;-73
2022/01/09 05:30:58;;;;;;;35.60;6.15;;;6.00;99.90;;;;;;5005465;28;20152;-73
2022/01/09 05:33:23;;;;;;;38.47;6.43;;;6.00;99.90;;;;;;5003488;28;20065;-73
2022/01/09 05:35:49;;;;;;;32.85;5.82;;;6.00;99.90;;;;;;5004112;28;20599;-73
2022/01/09 05:38:17;;;;;;;31.90;5.85;;;6.10;99.90;;;;;;5004669;28;20042;-73
2022/01/09 05:40:42;;;;;;;34.40;5.70;;;6.10;99.90;;;;;;5005723;28;20485;-73
2022/01/09 05:43:08;;;;;;;32.20;6.05;;;6.00;99.90;;;;;;5004452;28;20051;-72
2022/01/09 05:45:33;;;;;;;38.50;6.10;;;6.00;99.90;;;;;;5006256;28;20038;-73
2022/01/09 05:48:00;;;;;;;32.42;6.07;;;6.00;99.90;;;;;;5005500;28;20049;-73
2022/01/09 05:50:26;;;;;;;37.10;6.00;;;6.00;99.90;;;;;;5001319;28;20394;-73
2022/01/09 05:52:51;;;;;;;33.22;5.55;;;6.00;99.90;;;;;;5000281;28;20038;-73
2022/01/09 05:55:17;;;;;;;26.48;4.80;;;6.00;99.90;;;;;;5004007;28;20121;-73
2022/01/09 05:57:43;;;;;;;34.75;5.80;;;6.00;99.90;;;;;;5004985;28;20057;-72
2022/01/09 06:00:08;;;;;;;26.80;4.88;;;6.00;99.90;;;;;;5006384;28;20062;-73
2022/01/09 06:02:34;;;;;;;27.27;4.93;;;6.00;99.90;;;;;;5010348;28;20038;-73
2022/01/09 06:05:00;;;;;;;30.23;4.88;;;6.00;99.90;;;;;;5010107;28;20183;-73
2022/01/09 06:07:25;;;;;;;37.92;5.70;;;6.00;99.90;;;;;;5008348;28;20041;-73
2022/01/09 06:09:51;;;;;;;35.80;5.50;;;6.00;99.90;;;;;;5007411;28;20037;-74
2022/01/09 06:12:17;;;;;;;28.08;5.53;;;6.00;99.90;;;;;;5009355;28;20077;-73
2022/01/09 06:14:42;;;;;;;28.63;4.63;;;5.90;99.90;;;;;;5008114;28;20124;-73
2022/01/09 06:17:08;;;;;;;22.20;4.53;;;5.90;99.90;;;;;;5008772;28;20393;-73
2022/01/09 06:19:33;;;;;;;25.52;4.53;;;5.90;99.90;;;;;;5008705;28;20096;-73
2022/01/09 06:21:59;;;;;;;25.83;4.43;;;5.90;99.90;;;;;;5009478;28;20560;-73
2022/01/09 06:24:25;;;;;;;21.75;4.75;;;5.90;99.90;;;;;;5009425;28;20048;-72
2022/01/09 06:26:50;;;;;;;31.75;5.35;;;5.90;99.90;;;;;;5008811;28;20080;-72
2022/01/09 06:29:16;;;;;;;21.63;3.65;;;5.80;99.90;;;;;;5010068;28;20421;-73
2022/01/09 06:31:42;;;;;;;25.13;4.80;;;5.80;99.90;;;;;;5006444;28;20070;-73
2022/01/09 06:34:08;;;;;;;26.15;4.32;;;5.90;99.90;;;;;;5007093;28;20054;-73
2022/01/09 06:36:34;;;;;;;21.63;4.35;;;5.80;99.90;;;;;;5009650;28;20141;-74
2022/01/09 06:38:59;;;;;;;27.58;4.85;;;5.80;99.90;;;;;;5008460;28;20046;-73
2022/01/09 06:41:25;;;;;;;26.80;4.68;;;5.80;99.90;;;;;;5009037;28;20087;-73
2022/01/09 06:43:50;;;;;;;25.58;4.15;;;5.80;99.90;;;;;;5008192;28;20045;-73
2022/01/09 06:46:16;;;;;;;37.03;5.55;;;5.70;99.90;;;;;;5008366;28;20140;-72
2022/01/09 06:48:42;;;;;;;28.25;4.60;;;5.80;99.90;;;;;;5007616;28;20053;-73
2022/01/09 06:51:07;;;;;;;24.08;4.50;;;5.80;99.90;;;;;;5010146;28;20058;-73
2022/01/09 06:53:33;;;;;;;29.23;4.88;;;5.70;99.90;;;;;;5008964;28;20069;-72
2022/01/09 06:55:58;;;;;;;31.40;5.80;;;5.70;99.90;;;;;;5012674;28;20456;-73
2022/01/09 06:58:24;;;;;;;24.73;4.32;;;5.70;99.90;;;;;;5008182;28;20129;-72
2022/01/09 07:00:50;;;;;;;25.17;4.82;;;5.70;99.90;;;;;;5013623;28;20030;-74
2022/01/09 07:03:15;;;;;;;20.02;3.50;;;5.70;99.90;;;;;;5009198;28;20116;-73
2022/01/09 07:05:41;;;;;;;21.10;4.50;;;5.70;99.90;;;;;;5008079;28;20045;-72
2022/01/09 07:08:07;;;;;;;26.38;4.63;;;5.70;99.90;;;;;;5009699;28;20038;-73
2022/01/09 07:10:32;;;;;;;24.52;3.67;;;5.70;99.90;;;;;;5007869;28;20052;-73
2022/01/09 07:12:58;;;;;;;22.02;4.55;;;5.70;99.90;;;;;;5006446;28;20068;-72
2022/01/09 07:15:23;;;;;;;21.95;3.55;;;5.70;99.90;;;;;;5005684;28;20050;-73
2022/01/09 07:17:49;;;;;;;18.50;3.88;;;5.70;99.90;;;;;;5007333;28;20087;-73
2022/01/09 07:20:15;;;;;;;26.63;4.05;;;5.70;99.90;;;;;;5008315;28;20404;-72
2022/01/09 07:22:40;;;;;;;21.42;3.67;;;5.70;99.90;;;;;;5009002;28;20045;-73
2022/01/09 07:25:06;;;;;;;23.08;3.67;;;5.70;99.90;;;;;;5009876;28;20045;-73
2022/01/09 07:27:33;;;;;;;19.05;3.35;;;5.70;99.90;;;;;;5009099;28;20405;-73
2022/01/09 07:29:59;;;;;;;26.75;4.90;;;5.70;99.90;;;;;;5009019;28;20058;-73
2022/01/09 07:32:24;;;;;;;19.02;4.07;;;5.70;99.90;;;;;;5008921;28;20046;-72
2022/01/09 07:34:50;;;;;;;18.60;3.17;;;5.60;99.90;;;;;;5002287;28;20042;-73
2022/01/09 07:37:16;;;;;;;21.52;3.58;;;5.60;99.90;;;;;;5000942;28;20054;-73
2022/01/09 07:39:41;;;;;;;17.25;2.70;;;5.60;99.90;;;;;;5006392;28;20034;-73
2022/01/09 07:42:07;;;;;;;21.38;3.40;;;5.60;99.90;;;;;;5006631;28;20046;-73
2022/01/09 07:44:33;;;;;;;15.05;2.75;;;5.60;99.90;;;;;;5007105;28;20049;-73
2022/01/09 07:46:59;;;;;;;15.50;3.10;;;5.60;99.90;;;;;;5008464;28;20049;-72
2022/01/09 07:49:24;;;;;;;18.95;2.80;;;5.50;99.90;;;;;;5007100;28;20093;-73
2022/01/09 07:51:50;;;;;;;13.07;2.75;;;5.50;99.90;;;;;;5005121;28;20053;-75
2022/01/09 07:54:16;;;;;;;21.25;3.50;;;5.50;99.90;;;;;;5008969;28;20464;-74
2022/01/09 07:56:42;;;;;;;15.32;2.67;;;5.50;99.90;;;;;;5004680;28;20037;-75
2022/01/09 07:59:07;;;;;;;13.50;2.40;;;5.50;99.90;;;;;;5006820;28;20678;-71
2022/01/09 08:01:33;;;;;;;14.48;2.50;;;5.50;99.90;;;;;;5019583;28;20057;-72
2022/01/09 08:03:59;;;;;;;12.98;2.63;;;5.50;99.90;;;;;;5008048;28;20042;-72
2022/01/09 08:06:24;;;;;;;13.82;2.90;;;5.50;99.90;;;;;;5006666;28;20481;-71
2022/01/09 08:08:50;;;;;;;17.95;3.25;;;5.50;99.90;;;;;;5011191;28;20140;-71
2022/01/09 08:11:17;;;;;;;14.50;3.00;;;5.50;99.90;;;;;;5009964;28;20133;-71
2022/01/09 08:13:43;;;;;;;;;;;5.50;99.90;;;;;;5007397;28;20073;-72
2022/01/09 08:16:09;;;;;;;12.95;2.38;;;5.50;99.90;;;;;;5010532;28;19965;-72
2022/01/09 08:18:34;;;;;;;12.88;2.10;;;5.40;99.90;;;;;;5008960;28;20046;-73
2022/01/09 08:21:00;;;;;;;11.85;2.33;;;5.50;99.90;;;;;;5008274;28;20050;-72
2022/01/09 08:23:25;;;;;;;13.50;3.05;;;5.40;99.90;;;;;;5009587;28;20129;-72
2022/01/09 08:25:51;;;;;;;12.10;3.13;;;5.50;99.90;;;;;;5007141;28;20046;-72
2022/01/09 08:28:17;;;;;;;14.25;2.90;;;5.40;99.90;;;;;;5008635;28;20046;-72
2022/01/09 08:30:42;;;;;;;12.65;2.55;;;5.40;99.90;;;;;;5008314;28;20129;-71
2022/01/09 08:33:08;;;;;;;12.27;3.15;;;5.40;99.90;;;;;;5007767;28;20049;-72
2022/01/09 08:35:33;;;;;;;14.50;3.00;;;5.40;99.90;;;;;;5008987;28;20045;-73
2022/01/09 08:37:59;;;;;;;10.18;2.58;;;5.40;99.90;;;;;;5009277;28;20037;-72
2022/01/09 08:40:24;;;;;;;13.85;2.42;;;5.50;99.90;;;;;;5007311;28;20120;-73
2022/01/09 08:42:53;;;;;;;11.63;2.53;;;5.40;99.90;;;;;;5009225;28;20046;-73
2022/01/09 08:45:20;;;;;;;12.13;3.08;;;5.50;99.90;;;;;;4998460;28;20379;-73
2022/01/09 08:47:46;;;;;;;10.77;2.47;;;5.50;99.90;;;;;;5004121;28;20069;-73
2022/01/09 08:50:13;;;;;;;16.45;2.55;;;5.50;99.90;;;;;;5010409;28;20068;-72
2022/01/09 08:52:38;;;;;;;13.63;2.20;;;5.50;99.90;;;;;;4998719;28;20053;-71
2022/01/09 08:55:06;;;;;;;12.23;2.40;;;5.50;99.90;;;;;;5006703;28;20382;-71
2022/01/09 08:57:31;;;;;;;9.40;2.90;;;5.50;99.90;;;;;;5008647;28;20046;-71
2022/01/09 08:59:57;;;;;;;10.43;2.55;;;5.50;99.90;;;;;;5006868;28;20379;-72
2022/01/09 09:02:23;;;;;;;14.75;3.63;;;5.50;99.90;;;;;;5006637;28;20499;-72
2022/01/09 09:04:48;;;;;;;13.77;2.33;;;5.50;99.90;;;;;;5008624;28;20053;-71
2022/01/09 09:07:18;;;;;;;10.93;2.08;;;5.50;99.90;;;;;;5007937;28;20064;-72
2022/01/09 09:09:44;;;;;;;13.20;2.85;;;5.50;99.90;;;;;;5006136;28;20081;-71
2022/01/09 09:12:10;;;;;;;12.77;2.47;;;5.60;99.90;;;;;;5008093;28;20644;-72
2022/01/09 09:14:35;;;;;;;10.25;2.22;;;5.60;99.90;;;;;;5007724;28;20037;-72
2022/01/09 09:17:01;;;;;;;14.07;2.40;;;5.50;99.90;;;;;;5007223;28;20049;-71
2022/01/09 09:19:26;;;;;;;12.18;3.05;;;5.60;99.90;;;;;;5008219;28;20046;-71
2022/01/09 09:21:52;;;;;;;14.23;3.00;;;5.60;99.90;;;;;;5007219;28;20090;-71
2022/01/09 09:24:18;;;;;;;13.02;2.28;;;5.60;99.90;;;;;;5007919;28;20482;-72
2022/01/09 09:26:44;;;;;;;12.80;2.70;;;5.60;99.90;;;;;;5006716;28;20053;-72
2022/01/09 09:29:09;;;;;;;12.85;3.28;;;5.60;99.90;;;;;;5007599;28;20046;-72
2022/01/09 09:31:35;;;;;;;11.77;2.58;;;5.60;99.90;;;;;;5004582;28;20053;-72
2022/01/09 09:34:02;;;;;;;13.77;2.45;;;5.60;99.90;;;;;;5006697;28;20049;-72
2022/01/09 09:36:27;;;;;;;17.08;2.70;;;5.60;99.90;;;;;;5009884;28;20394;-72
2022/01/09 09:38:53;;;;;;;13.63;2.95;;;5.60;99.90;;;;;;5011349;28;20068;-72
2022/01/09 09:41:25;;;;;;;16.13;3.00;;;5.60;99.90;;;;;;5011102;28;20431;-71
2022/01/09 09:43:52;;;;;;;17.17;2.88;;;5.70;99.90;;;;;;5009747;28;20050;-71
2022/01/09 09:46:21;;;;;;;17.93;2.97;;;5.70;99.90;;;;;;4996553;28;20069;-72
2022/01/09 09:48:48;;;;;;;13.32;2.75;;;5.70;99.90;;;;;;5025763;28;20969;-72
2022/01/09 09:51:13;;;;;;;14.13;2.67;;;5.70;99.90;;;;;;5009977;28;20057;-72
2022/01/09 09:53:39;;;;;;;14.13;2.83;;;5.70;99.90;;;;;;5010659;28;20069;-74
2022/01/09 09:56:05;;;;;;;14.02;3.80;;;5.70;99.90;;;;;;5009880;28;20123;-72
2022/01/09 09:58:30;;;;;;;12.00;2.95;;;5.70;99.90;;;;;;5010043;28;20115;-72
2022/01/09 10:00:57;;;;;;;16.20;3.10;;;5.70;99.90;;;;;;5011129;28;20049;-72
2022/01/09 10:03:30;;;;;;;18.50;3.40;;;5.80;99.90;;;;;;5009621;28;20052;-72
2022/01/09 10:05:56;;;;;;;19.73;3.53;;;5.80;99.90;;;;;;5000313;28;20172;-73
2022/01/09 10:08:33;;;;;;;13.48;3.33;;;5.80;99.90;;;;;;5007507;28;20132;-74
2022/01/09 10:10:58;;;;;;;17.75;3.05;;;5.80;99.90;;;;;;5011533;28;20618;-72
2022/01/09 10:13:24;;;;;;;15.68;3.17;;;5.80;99.90;;;;;;5010036;28;20077;-74
2022/01/09 10:15:55;;;;;;;19.20;3.63;;;5.80;99.90;;;;;;5013089;28;20127;-73
2022/01/09 10:18:50;;;;;;;17.95;3.83;;;5.80;99.90;;;;;;5002236;28;20054;-72
2022/01/09 10:21:19;;;;;;;16.30;2.72;;;5.80;99.90;;;;;;4999708;28;20061;-74
2022/01/09 10:24:01;;;;;;;18.85;3.50;;;5.80;99.90;;;;;;5009513;28;20143;-72
2022/01/09 10:26:29;;;;;;;20.10;3.70;;;5.80;99.90;;;;;;5008934;28;20504;-71
2022/01/09 10:28:55;;;;;;;17.13;3.72;;;5.80;99.90;;;;;;5009529;28;21573;-72
2022/01/09 10:31:21;;;;;;;21.10;4.15;;;5.80;99.90;;;;;;5011521;28;20505;-72
2022/01/09 10:34:07;;;;;;;22.83;5.65;;;5.90;99.90;;;;;;5008136;28;20540;-71
2022/01/09 10:36:44;;;;;;;15.23;3.70;;;5.90;99.90;;;;;;5003911;28;20048;-77
2022/01/09 10:39:18;;;;;;;18.10;3.80;;;5.90;99.90;;;;;;5006871;28;20096;-70
2022/01/09 10:41:55;;;;;;;17.73;3.88;;;5.90;99.90;;;;;;5011735;28;20037;-72
2022/01/09 10:44:27;;;;;;;18.25;4.03;;;5.90;99.90;;;;;;5010097;28;20050;-72
2022/01/09 10:46:55;;;;;;;22.35;3.78;;;5.90;99.90;;;;;;5008360;28;20053;-72
2022/01/09 10:49:21;;;;;;;20.63;3.45;;;5.90;99.90;;;;;;5010585;28;20042;-72
2022/01/09 10:51:48;;;;;;;15.25;3.75;;;5.90;99.90;;;;;;5007734;28;20121;-72
2022/01/09 10:54:32;;;;;;;16.27;3.03;;;5.90;99.90;;;;;;5008274;28;20042;-72
2022/01/09 10:57:22;;;;;;;20.02;3.75;;;5.90;99.90;;;;;;5008335;28;20048;-72
2022/01/09 10:59:49;;;;;;;17.70;4.22;;;6.00;99.90;;;;;;5009909;28;20042;-72
2022/01/09 11:02:15;;;;;;;23.00;4.25;;;5.90;99.90;;;;;;5009608;28;20046;-72
2022/01/09 11:04:48;;;;;;;14.70;3.20;;;6.00;99.90;;;;;;5009659;28;20053;-72
2022/01/09 11:07:14;;;;;;;22.40;4.47;;;6.00;99.90;;;;;;5005755;28;20042;-72
2022/01/09 11:09:44;;;;;;;22.50;3.53;;;6.00;99.90;;;;;;5006079;28;20044;-71
2022/01/09 11:12:10;;;;;;;20.55;3.70;;;6.00;99.90;;;;;;5006237;28;20161;-72
2022/01/09 11:14:40;;;;;;;19.80;3.63;;;6.00;99.90;;;;;;5006490;28;20108;-72
2022/01/09 11:17:08;;;;;;;18.00;3.33;;;6.10;99.90;;;;;;5009914;28;20824;-73
2022/01/09 11:19:34;;;;;;;15.10;3.22;;;6.10;99.90;;;;;;5008407;28;20058;-72
2022/01/09 11:22:03;;;;;;;15.80;3.00;;;6.10;99.90;;;;;;5006752;28;20056;-72
2022/01/09 11:24:57;;;;;;;14.35;3.42;;;6.20;99.90;;;;;;5007114;28;20056;-72
2022/01/09 11:27:44;;;;;;;22.92;4.60;;;6.20;99.90;;;;;;5007273;28;20056;-73
2022/01/09 11:30:19;;;;;;;16.88;3.20;;;6.30;99.90;;;;;;5007485;28;20421;-72
2022/01/09 11:33:28;;;;;;;18.73;3.78;;;6.40;99.90;;;;;;5006774;28;20053;-72
2022/01/09 11:36:19;;;;;;;19.73;3.72;;;6.50;99.90;;;;;;5008054;28;20108;-73
2022/01/09 11:39:14;;;;;;;14.25;3.10;;;6.50;99.90;;;;;;4997136;28;20069;-72
2022/01/09 11:41:41;;;;;;;14.38;3.60;;;6.60;99.90;;;;;;4993625;28;20065;-72
2022/01/09 11:44:11;;;;;;;13.98;3.45;;;6.60;99.90;;;;;;5007760;28;20155;-71
2022/01/09 11:46:59;;;;;;;17.05;3.42;;;6.60;99.90;;;;;;5009146;28;20037;-72
2022/01/09 11:49:27;;;;;;;16.27;3.42;;;6.70;99.90;;;;;;5007674;28;20053;-72
2022/01/09 11:51:57;;;;;;;;;;;6.70;99.90;;;;;;5008671;28;20054;-72
2022/01/09 11:54:24;;;;;;;27.05;4.28;;;6.70;99.90;;;;;;5008058;28;19926;-72
2022/01/09 11:57:03;;;;;;;14.95;3.38;;;6.70;99.90;;;;;;5007900;28;20069;-72
2022/01/09 11:59:38;;;;;;;21.75;3.85;;;6.80;99.90;;;;;;5008792;28;20120;-72
2022/01/09 12:02:29;;;;;;;19.77;4.82;;;6.80;99.90;;;;;;4993216;28;20378;-74
2022/01/09 12:05:06;;;;;;;19.13;3.85;;;6.80;99.90;;;;;;5007810;28;20084;-72
2022/01/09 12:07:31;;;;;;;19.23;4.00;;;6.80;99.90;;;;;;5008475;28;20060;-72
2022/01/09 12:09:58;;;;;;;18.35;3.63;;;6.80;99.90;;;;;;5009118;28;20037;-72
2022/01/09 12:12:34;;;;;;;17.98;3.83;;;6.80;99.90;;;;;;5009205;28;20053;-73
2022/01/09 12:15:04;;;;;;;16.35;3.40;;;6.80;99.90;;;;;;5009868;28;20121;-72
2022/01/09 12:17:46;;;;;;;15.88;3.20;;;6.80;99.90;;;;;;5009712;28;20057;-72
2022/01/09 12:20:14;;;;;;;24.90;3.88;;;6.80;99.90;;;;;;5008722;28;20056;-72
2022/01/09 12:22:46;;;;;;;15.98;3.53;;;6.70;99.90;;;;;;5008130;28;20120;-73
2022/01/09 12:25:24;;;;;;;21.17;4.13;;;6.70;99.90;;;;;;5009353;28;20088;-72
2022/01/09 12:28:09;;;;;;;19.15;3.92;;;6.70;99.90;;;;;;5007525;28;20080;-72
2022/01/09 12:33:12;;;;;;;17.35;3.67;;;6.70;99.90;;;;;;5007956;28;20469;-73
2022/01/09 12:35:45;;;;;;;16.88;3.22;;;6.70;99.90;;;;;;5008393;28;20091;-72
2022/01/09 12:38:19;;;;;;;17.95;3.67;;;6.70;99.90;;;;;;4996163;28;20050;-72
2022/01/09 12:40:46;;;;;;;14.65;3.17;;;6.70;99.90;;;;;;5024144;28;20588;-72
2022/01/09 12:43:13;;;;;;;15.43;3.20;;;6.70;99.90;;;;;;5008491;28;20124;-71
2022/01/09 12:45:43;;;;;;;18.85;4.03;;;6.70;99.90;;;;;;5008902;28;20038;-72
2022/01/09 12:48:31;;;;;;;13.50;3.30;;;6.70;99.90;;;;;;5009248;28;20058;-73
2022/01/09 12:51:08;;;;;;;20.35;3.90;;;6.70;99.90;;;;;;4991452;28;20078;-72
2022/01/09 12:53:39;;;;;;;14.98;3.55;;;6.70;99.90;;;;;;5007406;28;20061;-72
2022/01/09 12:56:10;;;;;;;18.65;3.63;;;6.70;99.90;;;;;;5006700;28;20077;-72
2022/01/09 12:58:43;;;;;;;17.17;4.25;;;6.80;99.90;;;;;;5006821;28;20060;-72